Abernant, Alabama
Current Conditions -  °F | °C
As of 9:53 AM on Sunday 25 Jan 2015 (Local Time) from KTCL Reporting Station
Clear Clear  
Wind Chill: 44°   Ceiling: Unl
Heat Index: 47°   Visibility: 10mi
Dew Point: 37°   Wind: 6mph
Humidity: 68%   Direction: 170°S
Pressure: 29.92"   Gusts: NA
Location:  33.29°N, 87.2°W
Report Text: KTCL 251553Z 17005KT 10SM CLR 08/03 A2992 RMK AO2 SLP130 T00830028
Loading
Personal Weather Stations






























Interactive Weather Map New forecast layout! Learn more

10-Day Weather Forecast

Advertisements
Track Severe Weather on mobile